Time;durP1;ratioP1;P1;durP2;ratioP2;P2;SDS_P1;SDS_P2;PMS_P1;PMS_P2;Temp;Humidity;BMP_temperature;BMP_pressure;BME280_temperature;BME280_humidity;BME280_pressure;Samples;Min_cycle;Max_cycle;Signal;HPM_P1;HPM_P2
2023/12/06 00:01:19;;;;;;;82.47;35.38;;;;;;;0.82;100.00;100796.00;6368292;22;20026;-82
2023/12/06 00:03:44;;;;;;;83.05;33.35;;;;;;;0.78;100.00;100796.47;6340165;22;20017;-82
2023/12/06 00:06:10;;;;;;;78.13;31.52;;;;;;;0.82;100.00;100790.75;6368431;22;20006;-83
2023/12/06 00:08:35;;;;;;;76.10;32.00;;;;;;;0.70;100.00;100770.09;6340200;22;20165;-83
2023/12/06 00:11:00;;;;;;;72.18;30.30;;;;;;;0.87;100.00;100796.41;6368354;22;20082;-81
2023/12/06 00:13:26;;;;;;;71.40;31.30;;;;;;;0.84;100.00;100788.78;6368145;22;20055;-80
2023/12/06 00:15:51;;;;;;;69.57;31.80;;;;;;;0.78;100.00;100778.03;6368117;22;20028;-81
2023/12/06 00:18:16;;;;;;;75.22;31.65;;;;;;;0.87;100.00;100793.78;6368051;22;20055;-81
2023/12/06 00:20:42;;;;;;;77.68;30.83;;;;;;;0.96;100.00;100804.34;6368032;22;20006;-81
2023/12/06 00:23:07;;;;;;;78.70;32.33;;;;;;;0.95;100.00;100800.91;6340188;22;20009;-82
2023/12/06 00:25:32;;;;;;;73.72;29.27;;;;;;;0.96;100.00;100802.53;6340090;22;20009;-80
2023/12/06 00:27:58;;;;;;;68.82;29.23;;;;;;;0.90;100.00;100804.00;6368058;22;20029;-81
2023/12/06 00:30:23;;;;;;;78.47;31.38;;;;;;;0.82;100.00;100803.06;6368080;22;20058;-81
2023/12/06 00:32:48;;;;;;;70.22;30.33;;;;;;;0.85;100.00;100805.41;6367952;22;20085;-81
2023/12/06 00:35:14;;;;;;;76.03;30.95;;;;;;;0.90;100.00;100809.25;6368355;22;20025;-81
2023/12/06 00:37:39;;;;;;;76.93;31.45;;;;;;;0.84;100.00;100815.09;6367947;22;20394;-80
2023/12/06 00:40:05;;;;;;;75.30;31.67;;;;;;;0.78;100.00;100809.63;6339950;22;20006;-82
2023/12/06 00:42:31;;;;;;;75.25;32.65;;;;;;;0.79;100.00;100809.47;6339811;22;20014;-81
2023/12/06 00:44:56;;;;;;;76.70;32.15;;;;;;;0.84;100.00;100814.28;6339874;22;20056;-81
2023/12/06 00:47:21;;;;;;;70.45;30.27;;;;;;;0.86;100.00;100828.94;6368195;22;20003;-81
2023/12/06 00:49:47;;;;;;;70.47;29.85;;;;;;;0.91;100.00;100836.41;6367898;22;20002;-82
2023/12/06 00:52:12;;;;;;;73.80;30.30;;;;;;;0.83;100.00;100829.25;6367792;22;20370;-81
2023/12/06 00:54:37;;;;;;;79.45;31.80;;;;;;;0.89;100.00;100835.72;6367647;22;20327;-81
2023/12/06 00:57:03;;;;;;;69.05;30.45;;;;;;;0.85;100.00;100837.81;6367777;22;20002;-82
2023/12/06 00:59:28;;;;;;;78.80;33.08;;;;;;;0.91;100.00;100842.50;6367879;22;20006;-82
2023/12/06 01:01:53;;;;;;;69.93;30.42;;;;;;;0.86;100.00;100836.00;6339737;22;20010;-81
2023/12/06 01:04:19;;;;;;;85.35;31.08;;;;;;;0.87;100.00;100841.16;6367616;22;20066;-81
2023/12/06 01:06:44;;;;;;;68.13;31.17;;;;;;;0.86;100.00;100844.72;6367650;22;20059;-81
2023/12/06 01:09:09;;;;;;;71.55;28.92;;;;;;;0.89;100.00;100851.53;6339701;22;20056;-81
2023/12/06 01:11:34;;;;;;;71.53;29.60;;;;;;;0.91;100.00;100862.72;6339884;22;20018;-81
2023/12/06 01:14:00;;;;;;;74.43;29.35;;;;;;;0.92;100.00;100853.84;6367578;22;20010;-81
2023/12/06 01:16:25;;;;;;;75.65;31.15;;;;;;;0.91;100.00;100846.94;6367670;22;20026;-81
2023/12/06 01:18:50;;;;;;;74.93;30.35;;;;;;;0.91;100.00;100853.03;6367379;22;20002;-82
2023/12/06 01:21:16;;;;;;;83.30;30.20;;;;;;;0.93;100.00;100858.13;6368902;22;20005;-81
2023/12/06 01:23:41;;;;;;;71.88;29.77;;;;;;;0.91;100.00;100866.19;6369095;22;20057;-81
2023/12/06 01:26:07;;;;;;;63.58;28.98;;;;;;;0.90;100.00;100876.88;6369151;22;20002;-81
2023/12/06 01:28:32;;;;;;;67.50;28.40;;;;;;;0.95;100.00;100879.88;6341211;22;20044;-81
2023/12/06 01:30:57;;;;;;;59.88;28.05;;;;;;;0.87;100.00;100872.72;6369038;22;20327;-81
2023/12/06 01:33:22;;;;;;;66.00;28.30;;;;;;;0.90;100.00;100880.31;6369058;22;20012;-81
2023/12/06 01:35:48;;;;;;;64.35;29.48;;;;;;;0.86;100.00;100884.19;6340966;22;20009;-80
2023/12/06 01:38:13;;;;;;;63.05;28.15;;;;;;;0.88;100.00;100886.72;6341141;22;19999;-81
2023/12/06 01:40:40;;;;;;;59.60;28.50;;;;;;;0.95;100.00;100892.19;6341002;22;20093;-80
2023/12/06 01:43:06;;;;;;;61.63;28.23;;;;;;;0.90;100.00;100893.47;6368804;22;20085;-80
2023/12/06 01:45:31;;;;;;;59.33;26.02;;;;;;;0.91;100.00;100896.94;6368891;22;20006;-81
2023/12/06 01:47:57;;;;;;;57.03;26.75;;;;;;;0.91;100.00;100899.56;6341192;22;20082;-80
2023/12/06 01:50:23;;;;;;;57.45;26.90;;;;;;;0.92;100.00;100898.59;6341625;22;20006;-81
2023/12/06 01:52:48;;;;;;;60.95;27.67;;;;;;;0.93;100.00;100903.72;6369326;22;20002;-80
2023/12/06 01:55:14;;;;;;;62.42;29.70;;;;;;;0.91;100.00;100902.22;6341715;22;20011;-81
2023/12/06 01:57:40;;;;;;;58.80;26.60;;;;;;;0.86;100.00;100894.72;6369443;22;20080;-82
2023/12/06 02:00:07;;;;;;;57.20;26.38;;;;;;;0.87;100.00;100904.31;6369333;22;20316;-82
2023/12/06 02:02:33;;;;;;;58.70;25.67;;;;;;;0.87;100.00;100899.03;6369363;22;20373;-81
2023/12/06 02:04:58;;;;;;;58.85;26.35;;;;;;;0.85;100.00;100889.63;6369733;22;20063;-82
2023/12/06 02:07:25;;;;;;;63.25;28.48;;;;;;;0.82;100.00;100896.00;6369168;22;20017;-82
2023/12/06 02:09:50;;;;;;;63.22;26.15;;;;;;;0.91;100.00;100913.56;6341603;22;20339;-81
2023/12/06 02:12:15;;;;;;;58.53;28.45;;;;;;;0.82;100.00;100906.53;6368751;22;20040;-82
2023/12/06 02:14:41;;;;;;;61.63;29.45;;;;;;;0.80;100.00;100912.94;6369033;22;20073;-83
2023/12/06 02:17:07;;;;;;;51.55;25.02;;;;;;;0.86;100.00;100918.41;6368942;22;20077;-84
2023/12/06 02:19:33;;;;;;;56.28;26.23;;;;;;;0.89;100.00;100919.94;6340926;22;20491;-83
2023/12/06 02:21:59;;;;;;;56.50;26.25;;;;;;;0.90;100.00;100930.31;6368727;22;20033;-83
2023/12/06 02:24:28;;;;;;;54.22;26.65;;;;;;;0.79;100.00;100904.22;6368886;22;20013;-83
2023/12/06 02:26:54;;;;;;;56.38;27.58;;;;;;;0.93;100.00;100924.75;6341042;22;20037;-82
2023/12/06 02:29:20;;;;;;;56.58;27.45;;;;;;;0.93;100.00;100923.94;6368932;22;20048;-84
2023/12/06 02:31:45;;;;;;;47.45;24.42;;;;;;;0.88;100.00;100913.84;6367967;22;20015;-84
2023/12/06 02:34:16;;;;;;;60.40;26.88;;;;;;;0.91;100.00;100921.47;6340675;22;20002;-83
2023/12/06 02:36:46;;;;;;;49.55;22.70;;;;;;;0.89;100.00;100923.41;6368928;22;20006;-83
2023/12/06 02:39:12;;;;;;;50.30;25.23;;;;;;;0.91;100.00;100918.81;6340933;22;20335;-82
2023/12/06 02:41:37;;;;;;;51.90;26.33;;;;;;;0.91;100.00;100921.47;6340855;22;20002;-82
2023/12/06 02:44:03;;;;;;;55.58;25.08;;;;;;;0.90;100.00;100922.44;6369119;22;20003;-83
2023/12/06 02:46:28;;;;;;;48.40;23.42;;;;;;;0.93;100.00;100923.94;6340963;22;20002;-83
2023/12/06 02:48:54;;;;;;;50.10;25.60;;;;;;;0.97;100.00;100920.03;6341034;22;20006;-85
2023/12/06 02:51:22;;;;;;;47.63;23.65;;;;;;;1.00;100.00;100925.00;6368849;22;20005;-82
2023/12/06 02:53:48;;;;;;;51.08;25.77;;;;;;;0.97;100.00;100916.56;6340822;22;20030;-82
2023/12/06 02:56:14;;;;;;;43.85;23.42;;;;;;;1.01;100.00;100917.91;6368549;22;20003;-83
2023/12/06 02:58:39;;;;;;;42.20;21.35;;;;;;;1.06;100.00;100929.66;6368756;22;20009;-82
2023/12/06 03:01:04;;;;;;;46.22;24.00;;;;;;;1.08;100.00;100926.88;6368574;22;20006;-82
2023/12/06 03:03:30;;;;;;;53.03;23.83;;;;;;;1.09;100.00;100924.06;6340755;22;20003;-82
2023/12/06 03:05:55;;;;;;;41.05;22.20;;;;;;;1.02;100.00;100911.66;6368582;22;20006;-84
2023/12/06 03:08:20;;;;;;;46.50;24.05;;;;;;;1.08;100.00;100922.41;6340805;22;20089;-82
2023/12/06 03:10:46;;;;;;;47.55;25.25;;;;;;;1.02;100.00;100911.66;6340765;22;20002;-82
2023/12/06 03:13:11;;;;;;;43.35;22.38;;;;;;;1.05;100.00;100914.00;6368547;22;20006;-82
2023/12/06 03:15:36;;;;;;;40.17;21.30;;;;;;;1.12;100.00;100922.94;6340895;22;20010;-82
2023/12/06 03:18:02;;;;;;;48.13;25.17;;;;;;;1.12;100.00;100925.56;6368485;22;20327;-82
2023/12/06 03:20:27;;;;;;;41.63;22.50;;;;;;;1.07;100.00;100925.22;6368652;22;20002;-82
2023/12/06 03:22:53;;;;;;;47.35;23.77;;;;;;;1.08;100.00;100926.88;6368848;22;20017;-82
2023/12/06 03:25:18;;;;;;;42.67;22.65;;;;;;;1.13;100.00;100935.13;6340852;22;20026;-81
2023/12/06 03:27:45;;;;;;;45.38;23.88;;;;;;;1.13;100.00;100933.31;6368577;22;20424;-81
2023/12/06 03:30:11;;;;;;;44.30;22.55;;;;;;;1.18;100.00;100943.44;6368568;22;20379;-82
2023/12/06 03:32:37;;;;;;;49.67;23.52;;;;;;;1.15;100.00;100941.91;6368661;22;20331;-80
2023/12/06 03:35:03;;;;;;;43.60;23.38;;;;;;;1.13;100.00;100946.50;6368565;22;20002;-81
2023/12/06 03:37:29;;;;;;;38.10;22.30;;;;;;;1.18;100.00;100949.53;6368894;22;20423;-82
2023/12/06 03:39:54;;;;;;;43.38;22.25;;;;;;;1.19;100.00;100945.91;6340624;22;20059;-82
2023/12/06 03:42:19;;;;;;;47.85;24.20;;;;;;;1.22;100.00;100945.59;6368575;22;19998;-81
2023/12/06 03:44:45;;;;;;;49.47;26.70;;;;;;;1.25;100.00;100955.00;6340613;22;20427;-81
2023/12/06 03:47:10;;;;;;;43.17;22.45;;;;;;;1.20;100.00;100949.38;6340537;22;19999;-81
2023/12/06 03:49:36;;;;;;;42.97;22.30;;;;;;;1.23;100.00;100951.69;6340595;22;20002;-82
2023/12/06 03:52:01;;;;;;;44.20;24.33;;;;;;;1.27;100.00;100957.50;6368490;22;20483;-82
2023/12/06 03:54:27;;;;;;;39.70;20.25;;;;;;;1.27;100.00;100960.13;6340441;22;20002;-81
2023/12/06 03:56:52;;;;;;;41.58;21.80;;;;;;;1.31;100.00;100959.66;6340665;22;20047;-82
2023/12/06 03:59:18;;;;;;;41.60;21.88;;;;;;;1.28;100.00;100952.06;6368335;22;20002;-82
2023/12/06 04:01:44;;;;;;;44.10;24.15;;;;;;;1.34;100.00;100964.63;6340671;22;20391;-82
2023/12/06 04:04:10;;;;;;;48.85;23.80;;;;;;;1.33;100.00;100959.50;6340719;22;20072;-82
2023/12/06 04:06:35;;;;;;;46.03;23.23;;;;;;;1.36;100.00;100965.31;6340373;22;20006;-81
2023/12/06 04:09:00;;;;;;;46.03;22.45;;;;;;;1.38;100.00;100965.16;6368370;22;20006;-82
2023/12/06 04:11:27;;;;;;;39.92;22.48;;;;;;;1.35;100.00;100953.13;6368460;22;20037;-82
2023/12/06 04:13:52;;;;;;;43.60;23.92;;;;;;;1.39;100.00;100962.38;6368372;22;20331;-83
2023/12/06 04:16:17;;;;;;;41.95;22.30;;;;;;;1.39;100.00;100972.06;6340435;22;20006;-82
2023/12/06 04:18:43;;;;;;;42.45;21.00;;;;;;;1.46;100.00;100975.78;6368116;22;20029;-81
2023/12/06 04:21:08;;;;;;;40.90;22.10;;;;;;;1.47;100.00;100980.91;6340122;22;20033;-82
2023/12/06 04:23:33;;;;;;;47.15;24.55;;;;;;;1.46;100.00;100983.69;6368712;22;20026;-82
2023/12/06 04:25:59;;;;;;;41.85;21.33;;;;;;;1.51;100.00;100991.97;6340377;22;20067;-82
2023/12/06 04:28:24;;;;;;;40.60;23.02;;;;;;;1.51;100.00;100984.88;6340252;22;20474;-81
2023/12/06 04:30:49;;;;;;;44.33;22.25;;;;;;;1.47;100.00;100978.28;6340213;22;20089;-82
2023/12/06 04:33:15;;;;;;;42.20;21.38;;;;;;;1.46;100.00;100979.25;6340055;22;20045;-82
2023/12/06 04:35:41;;;;;;;44.05;22.67;;;;;;;1.50;100.00;100980.59;6340256;22;20026;-82
2023/12/06 04:38:06;;;;;;;45.30;22.00;;;;;;;1.49;100.00;100978.94;6340227;22;19999;-83
2023/12/06 04:40:32;;;;;;;44.45;22.27;;;;;;;1.52;100.00;100986.53;6368108;22;20063;-82
2023/12/06 04:42:57;;;;;;;43.63;21.67;;;;;;;1.53;100.00;100982.09;6339891;22;20006;-82
2023/12/06 04:45:22;;;;;;;43.92;22.60;;;;;;;1.57;100.00;100993.97;6368078;22;20007;-82
2023/12/06 04:47:49;;;;;;;41.88;23.73;;;;;;;1.62;100.00;100996.16;6340138;22;20012;-82
2023/12/06 04:50:14;;;;;;;40.95;21.27;;;;;;;1.60;100.00;100992.84;6340204;22;20442;-83
2023/12/06 04:52:40;;;;;;;51.95;25.40;;;;;;;1.55;100.00;100983.59;6340193;22;20014;-83
2023/12/06 04:55:06;;;;;;;48.53;24.50;;;;;;;1.57;100.00;100985.25;6340617;22;20308;-83
2023/12/06 04:57:32;;;;;;;46.15;21.75;;;;;;;1.68;100.00;101001.66;6341437;22;20010;-83
2023/12/06 04:59:58;;;;;;;43.40;22.30;;;;;;;1.63;100.00;100992.53;6341419;22;19995;-82
2023/12/06 05:02:23;;;;;;;45.83;23.10;;;;;;;1.69;100.00;101007.75;6341551;22;20010;-81
2023/12/06 05:04:48;;;;;;;43.42;21.98;;;;;;;1.60;100.00;100996.31;6369312;22;20052;-80
2023/12/06 05:07:14;;;;;;;43.65;21.95;;;;;;;1.69;100.00;101016.47;6341317;22;20094;-80
2023/12/06 05:09:39;;;;;;;48.17;24.00;;;;;;;1.69;100.00;101011.19;6341367;22;20002;-82
2023/12/06 05:12:05;;;;;;;46.45;23.55;;;;;;;1.70;100.00;101012.03;6369391;22;20014;-82
2023/12/06 05:14:30;;;;;;;43.65;23.13;;;;;;;1.74;100.00;101021.31;6369389;22;20006;-81
2023/12/06 05:16:55;;;;;;;54.10;25.33;;;;;;;1.75;100.00;101020.34;6369241;22;20469;-83
2023/12/06 05:19:21;;;;;;;45.90;24.02;;;;;;;1.70;100.00;101012.03;6341212;22;20010;-82
2023/12/06 05:21:46;;;;;;;49.72;23.40;;;;;;;1.78;100.00;101026.13;6369213;22;20037;-81
2023/12/06 05:24:12;;;;;;;48.13;23.98;;;;;;;1.78;100.00;101025.31;6369954;22;20010;-83
2023/12/06 05:26:37;;;;;;;42.53;22.52;;;;;;;1.79;100.00;101024.31;6369911;22;20002;-83
2023/12/06 05:29:03;;;;;;;43.50;22.75;;;;;;;1.76;100.00;101022.81;6341492;22;20331;-85
2023/12/06 05:31:28;;;;;;;47.28;23.13;;;;;;;1.78;100.00;101022.66;6342195;22;20313;-84
2023/12/06 05:33:54;;;;;;;45.97;22.70;;;;;;;1.84;100.00;101029.97;6341610;22;20011;-84
2023/12/06 05:36:19;;;;;;;50.00;24.17;;;;;;;1.81;100.00;101025.81;6341399;22;20007;-82
2023/12/06 05:38:44;;;;;;;49.55;25.65;;;;;;;1.82;100.00;101034.56;6341216;22;20254;-82
2023/12/06 05:41:10;;;;;;;47.88;24.73;;;;;;;1.86;100.00;101033.25;6369216;22;20005;-81
2023/12/06 05:43:35;;;;;;;56.40;27.45;;;;;;;1.83;100.00;101029.13;6369028;22;20018;-82
2023/12/06 05:46:01;;;;;;;51.67;24.83;;;;;;;1.87;100.00;101037.56;6341043;22;20015;-81
2023/12/06 05:48:26;;;;;;;50.05;25.75;;;;;;;1.87;100.00;101034.91;6341055;22;20010;-81
2023/12/06 05:50:52;;;;;;;49.22;25.10;;;;;;;1.88;100.00;101035.75;6341108;22;20088;-80
2023/12/06 05:53:17;;;;;;;48.55;23.25;;;;;;;1.90;100.00;101037.25;6341324;22;20006;-80
2023/12/06 05:55:42;;;;;;;55.90;26.98;;;;;;;1.95;100.00;101045.53;6369190;22;20006;-81
2023/12/06 05:58:08;;;;;;;50.83;24.40;;;;;;;1.97;100.00;101045.38;6369092;22;20006;-80
2023/12/06 06:00:33;;;;;;;48.47;22.98;;;;;;;2.00;100.00;101042.41;6340925;22;20006;-81
2023/12/06 06:02:59;;;;;;;47.80;24.80;;;;;;;1.99;100.00;101031.03;6368860;22;20025;-82
2023/12/06 06:05:25;;;;;;;55.92;25.65;;;;;;;2.03;100.00;101040.34;6368907;22;20083;-82
2023/12/06 06:07:50;;;;;;;46.00;23.80;;;;;;;2.05;100.00;101048.09;6369084;22;20004;-82
2023/12/06 06:10:16;;;;;;;53.00;23.23;;;;;;;2.00;100.00;101045.06;6368903;22;20059;-82
2023/12/06 06:12:41;;;;;;;46.97;22.98;;;;;;;1.92;100.00;101032.66;6340864;22;20006;-81
2023/12/06 06:15:08;;;;;;;44.20;22.38;;;;;;;1.99;100.00;101054.78;6341135;22;20007;-81
2023/12/06 06:17:34;;;;;;;48.17;25.20;;;;;;;1.99;100.00;101053.94;6342101;22;20072;-80
2023/12/06 06:20:00;;;;;;;45.72;22.33;;;;;;;2.01;100.00;101051.97;6341044;22;20081;-80
2023/12/06 06:22:25;;;;;;;40.25;22.60;;;;;;;1.99;100.00;101051.31;6340893;22;20049;-80
2023/12/06 06:24:50;;;;;;;41.92;21.10;;;;;;;2.05;100.00;101070.00;6368929;22;20376;-81
2023/12/06 06:27:16;;;;;;;45.47;22.10;;;;;;;2.02;100.00;101066.81;6341261;22;20002;-82
2023/12/06 06:29:41;;;;;;;44.03;20.10;;;;;;;2.06;100.00;101073.47;6341397;22;20006;-82
2023/12/06 06:32:06;;;;;;;47.70;23.00;;;;;;;2.03;100.00;101069.34;6340951;22;20014;-83
2023/12/06 06:34:32;;;;;;;49.83;21.92;;;;;;;1.99;100.00;101069.78;6340991;22;20009;-84
2023/12/06 06:36:57;;;;;;;36.67;19.63;;;;;;;2.05;100.00;101072.66;6341184;22;20064;-84
2023/12/06 06:39:23;;;;;;;42.97;20.52;;;;;;;2.03;100.00;101079.88;6368902;22;20002;-82
2023/12/06 06:41:48;;;;;;;43.03;21.23;;;;;;;2.10;100.00;101083.56;6369040;22;20026;-83
2023/12/06 06:44:13;;;;;;;53.05;22.88;;;;;;;2.06;100.00;101082.22;6369054;22;20054;-85
2023/12/06 06:46:39;;;;;;;44.72;21.85;;;;;;;1.92;100.00;101063.47;6340616;22;20013;-85
2023/12/06 06:49:05;;;;;;;43.25;22.33;;;;;;;1.86;100.00;101064.91;6341135;22;20010;-84
2023/12/06 06:51:32;;;;;;;45.55;22.55;;;;;;;1.94;100.00;101072.03;6340957;22;20055;-84
2023/12/06 06:53:58;;;;;;;46.17;20.90;;;;;;;2.07;100.00;101088.31;6369063;22;20056;-86
2023/12/06 06:56:23;;;;;;;44.88;21.77;;;;;;;2.05;100.00;101092.91;6368750;22;20365;-85
2023/12/06 06:58:48;;;;;;;42.40;21.42;;;;;;;2.04;100.00;101086.81;6368671;22;20010;-81
2023/12/06 07:01:14;;;;;;;45.55;20.70;;;;;;;1.80;100.00;101053.16;6369203;22;20079;-84
2023/12/06 07:03:39;;;;;;;44.95;20.67;;;;;;;2.09;100.00;101095.09;6369013;22;20041;-84
2023/12/06 07:06:04;;;;;;;40.90;21.63;;;;;;;2.08;100.00;101088.16;6368741;22;20284;-87
2023/12/06 07:08:30;;;;;;;46.10;20.55;;;;;;;2.07;100.00;101096.22;6341213;22;20079;-91
2023/12/06 07:10:56;;;;;;;43.25;23.15;;;;;;;2.10;100.00;101101.19;6369759;22;20009;-87
2023/12/06 07:13:22;;;;;;;42.53;19.92;;;;;;;2.09;100.00;101097.72;6342083;22;20106;-86
2023/12/06 07:15:47;;;;;;;42.47;20.35;;;;;;;2.14;100.00;101110.47;6341597;22;20014;-86
2023/12/06 07:18:14;;;;;;;47.05;22.10;;;;;;;2.08;100.00;101101.34;6341126;22;20014;-85
2023/12/06 07:20:40;;;;;;;39.28;20.38;;;;;;;2.14;100.00;101108.66;6342224;22;20002;-82
2023/12/06 07:23:06;;;;;;;44.25;20.45;;;;;;;2.10;100.00;101107.28;6341904;22;20343;-87
2023/12/06 07:25:32;;;;;;;38.63;20.60;;;;;;;2.16;100.00;101121.69;6341476;22;20081;-85
2023/12/06 07:31:19;;;;;;;38.88;19.80;;;;;;;2.10;100.00;101112.56;6372800;22;20016;-90
2023/12/06 07:33:44;;;;;;;51.67;20.40;;;;;;;2.08;100.00;101118.97;6350219;22;20010;-89
2023/12/06 07:36:11;;;;;;;37.20;19.35;;;;;;;1.89;100.00;101103.31;6345431;22;20335;-90
2023/12/06 07:38:36;;;;;;;43.45;21.30;;;;;;;1.88;100.00;101126.22;6369367;22;20006;-89
2023/12/06 07:41:02;;;;;;;42.65;21.45;;;;;;;1.73;100.00;101122.41;6372287;22;20459;-87
2023/12/06 07:43:27;;;;;;;40.28;19.85;;;;;;;1.68;100.00;101130.78;6341452;22;20017;-87
2023/12/06 07:45:53;;;;;;;39.50;20.55;;;;;;;1.67;100.00;101141.47;6341636;22;20327;-85
2023/12/06 07:48:18;;;;;;;45.90;21.55;;;;;;;1.53;100.00;101121.75;6368664;22;20047;-85
2023/12/06 07:50:43;;;;;;;38.22;19.77;;;;;;;1.57;100.00;101135.44;6340691;22;20003;-85
2023/12/06 07:53:09;;;;;;;39.70;21.13;;;;;;;1.57;100.00;101135.44;6368378;22;20347;-85
2023/12/06 07:55:34;;;;;;;45.92;21.73;;;;;;;1.45;100.00;101122.50;6340703;22;20081;-86
2023/12/06 07:57:59;;;;;;;43.10;21.70;;;;;;;1.49;100.00;101134.41;6368902;22;20002;-87
2023/12/06 08:00:25;;;;;;;40.13;19.85;;;;;;;1.53;100.00;101148.09;6340683;22;20006;-85
2023/12/06 08:02:50;;;;;;;43.35;20.98;;;;;;;1.55;100.00;101157.50;6340536;22;20364;-90
2023/12/06 08:05:19;;;;;;;45.55;22.42;;;;;;;1.88;100.00;101141.19;6341412;22;20090;-86
2023/12/06 08:07:44;;;;;;;53.70;24.42;;;;;;;2.43;100.00;101145.31;6340638;22;20033;-87
2023/12/06 08:10:12;;;;;;;54.80;23.25;;;;;;;2.89;100.00;101147.75;6342054;22;20439;-86
2023/12/06 08:12:38;;;;;;;58.72;24.65;;;;;;;3.10;100.00;101158.75;6368584;22;20010;-85
2023/12/06 08:15:05;;;;;;;59.05;25.77;;;;;;;3.43;100.00;101162.38;6368402;22;20018;-87
2023/12/06 08:17:30;;;;;;;57.78;26.23;;;;;;;3.79;100.00;101156.88;6340447;22;20142;-88
2023/12/06 08:19:56;;;;;;;64.97;27.55;;;;;;;4.16;100.00;101159.06;6340459;22;20048;-87
2023/12/06 08:22:21;;;;;;;64.40;28.25;;;;;;;4.83;100.00;101170.28;6340232;22;20006;-87
2023/12/06 08:24:46;;;;;;;60.83;28.33;;;;;;;5.56;100.00;101170.06;6340333;22;20048;-86
2023/12/06 08:27:12;;;;;;;66.47;30.55;;;;;;;6.08;100.00;101169.47;6368989;22;20426;-88
2023/12/06 08:29:38;;;;;;;63.50;31.15;;;;;;;6.19;100.00;101174.34;6341943;22;20097;-86
2023/12/06 08:32:04;;;;;;;51.97;26.02;;;;;;;6.01;100.00;101190.56;6342711;22;20036;-83
2023/12/06 08:34:29;;;;;;;48.13;25.05;;;;;;;5.63;100.00;101186.09;6370142;22;20478;-85
2023/12/06 08:36:55;;;;;;;36.50;21.02;;;;;;;5.58;100.00;101174.19;6369920;22;20058;-84
2023/12/06 08:39:20;;;;;;;33.67;20.70;;;;;;;5.64;100.00;101185.94;6370270;22;20121;-87
2023/12/06 08:41:46;;;;;;;32.97;19.55;;;;;;;5.05;100.00;101188.13;6369977;22;20006;-85
2023/12/06 08:44:11;;;;;;;32.65;19.00;;;;;;;4.47;100.00;101188.38;6369786;22;20002;-85
2023/12/06 08:46:37;;;;;;;27.95;17.40;;;;;;;4.02;100.00;101185.16;6342018;22;20483;-83
2023/12/06 08:49:03;;;;;;;32.17;18.73;;;;;;;3.69;100.00;101194.03;6342068;22;20006;-84
2023/12/06 08:51:28;;;;;;;33.35;19.25;;;;;;;3.80;100.00;101193.75;6341854;22;20007;-82
2023/12/06 08:53:53;;;;;;;33.05;18.95;;;;;;;3.98;100.00;101212.94;6341912;22;20029;-83
2023/12/06 08:56:19;;;;;;;36.42;20.27;;;;;;;4.69;100.00;101206.25;6369784;22;20026;-88
2023/12/06 08:58:44;;;;;;;38.63;21.23;;;;;;;5.38;100.00;101210.06;6370304;22;20081;-87
2023/12/06 09:01:09;;;;;;;33.28;19.80;;;;;;;5.66;100.00;101206.97;6342259;22;19998;-86
2023/12/06 09:03:35;;;;;;;35.60;19.23;;;;;;;5.77;100.00;101209.25;6369756;22;20013;-86
2023/12/06 09:06:00;;;;;;;33.15;19.42;;;;;;;5.54;100.00;101209.19;6341766;22;20335;-83
2023/12/06 09:08:25;;;;;;;28.35;18.42;;;;;;;5.53;100.00;101218.97;6341667;22;20022;-84
2023/12/06 09:10:52;;;;;;;30.88;20.17;;;;;;;5.90;100.00;101218.34;6370121;22;20002;-84
2023/12/06 09:13:18;;;;;;;31.85;18.63;;;;;;;6.05;100.00;101222.88;6370383;22;20319;-84
2023/12/06 09:15:43;;;;;;;33.50;19.20;;;;;;;6.00;100.00;101215.44;6341903;22;20002;-89
2023/12/06 09:18:08;;;;;;;29.30;17.27;;;;;;;5.72;100.00;101223.03;6341762;22;20051;-86
2023/12/06 09:20:34;;;;;;;27.63;17.02;;;;;;;5.26;100.00;101216.75;6341940;22;20004;-82
2023/12/06 09:22:59;;;;;;;26.70;15.73;;;;;;;5.03;100.00;101232.53;6341733;22;20038;-82
2023/12/06 09:25:25;;;;;;;29.42;16.95;;;;;;;5.32;100.00;101239.09;6341459;22;20308;-82
2023/12/06 09:27:50;;;;;;;25.42;17.20;;;;;;;6.14;100.00;101235.13;6341819;22;20003;-82
2023/12/06 09:30:16;;;;;;;23.92;17.20;;;;;;;7.02;100.00;101232.78;6369628;22;20002;-82
2023/12/06 09:32:41;;;;;;;29.27;14.55;;;;;;;7.62;100.00;101244.25;6341658;22;20338;-83
2023/12/06 09:35:08;;;;;;;24.77;14.85;;;;;;;7.67;100.00;101234.72;6341757;22;20022;-82
2023/12/06 09:37:34;;;;;;;19.52;12.15;;;;;;;7.78;100.00;101234.22;6369448;22;20373;-84
2023/12/06 09:39:59;;;;;;;18.95;12.85;;;;;;;7.74;100.00;101248.09;6369410;22;20006;-84
2023/12/06 09:42:29;;;;;;;20.20;12.18;;;;;;;7.99;100.00;101243.28;6369212;22;20006;-83
2023/12/06 09:44:55;;;;;;;21.10;12.23;;;;;;;8.03;100.00;101252.53;6341806;22;20002;-82
2023/12/06 09:47:29;;;;;;;22.60;12.13;;;;;;;8.03;100.00;101244.56;6342380;22;20407;-84
2023/12/06 09:49:54;;;;;;;17.60;11.30;;;;;;;7.55;100.00;101257.50;6342127;22;20378;-83
2023/12/06 09:52:23;;;;;;;18.35;10.88;;;;;;;6.86;100.00;101250.69;6342023;22;20093;-83
2023/12/06 09:54:51;;;;;;;16.40;10.63;;;;;;;6.55;100.00;101267.53;6340956;22;20435;-84
2023/12/06 09:57:17;;;;;;;14.60;10.90;;;;;;;5.97;100.00;101230.91;6341436;22;20010;-84
2023/12/06 09:59:47;;;;;;;14.68;10.77;;;;;;;5.78;100.00;101251.53;6369610;22;20002;-84
2023/12/06 10:02:13;;;;;;;17.15;11.85;;;;;;;5.65;100.00;101251.25;6369252;22;20037;-83
2023/12/06 10:04:38;;;;;;;19.08;11.98;;;;;;;5.86;100.00;101280.69;6369297;22;20013;-84
2023/12/06 10:07:04;;;;;;;17.70;11.77;;;;;;;5.82;100.00;101266.13;6369741;22;20030;-84
2023/12/06 10:09:29;;;;;;;17.90;11.77;;;;;;;5.87;100.00;101277.03;6369375;22;20010;-85
2023/12/06 10:12:06;;;;;;;18.50;11.85;;;;;;;5.74;100.00;101258.16;6369328;22;20426;-84
2023/12/06 10:14:32;;;;;;;17.10;12.73;;;;;;;5.56;100.00;101265.56;6341622;22;20008;-83
2023/12/06 10:16:57;;;;;;;17.42;11.25;;;;;;;5.43;100.00;101257.28;6341563;22;20454;-83
2023/12/06 10:19:23;;;;;;;16.02;10.80;;;;;;;5.28;100.00;101255.34;6369338;22;20335;-84
2023/12/06 10:21:49;;;;;;;23.95;12.50;;;;;;;5.34;100.00;101282.19;6369384;22;20009;-84
2023/12/06 10:24:15;;;;;;;16.85;10.25;;;;;;;5.51;100.00;101266.06;6369336;22;19998;-82
2023/12/06 10:26:40;;;;;;;18.73;10.82;;;;;;;5.77;100.00;101279.03;6369247;22;20012;-85
2023/12/06 10:29:06;;;;;;;18.75;11.38;;;;;;;5.74;100.00;101274.09;6369497;22;20009;-86
2023/12/06 10:31:38;;;;;;;21.80;11.55;;;;;;;5.88;100.00;101265.41;6341114;22;20002;-85
2023/12/06 10:34:05;;;;;;;19.92;12.82;;;;;;;6.08;100.00;101262.38;6341486;22;20003;-87
2023/12/06 10:36:31;;;;;;;16.80;9.93;;;;;;;6.31;100.00;101270.34;6341543;22;19998;-85
2023/12/06 10:38:58;;;;;;;17.20;10.35;;;;;;;6.35;100.00;101274.31;6341365;22;20135;-85
2023/12/06 10:41:25;;;;;;;18.58;11.25;;;;;;;6.13;100.00;101268.00;6369176;22;20365;-85
2023/12/06 10:43:54;;;;;;;15.65;10.18;;;;;;;6.03;100.00;101273.50;6341213;22;20416;-84
2023/12/06 10:46:21;;;;;;;17.30;10.18;;;;;;;5.89;100.00;101269.75;6341353;22;20006;-84
2023/12/06 10:48:48;;;;;;;13.18;10.15;;;;;;;5.81;100.00;101271.59;6369196;22;20466;-83
2023/12/06 10:51:15;;;;;;;16.50;10.27;;;;;;;5.71;100.00;101273.59;6341620;22;20022;-84
2023/12/06 10:53:42;;;;;;;16.90;9.32;;;;;;;5.61;100.00;101247.28;6340986;22;20021;-82
2023/12/06 10:56:09;;;;;;;16.55;10.32;;;;;;;5.82;100.00;101257.31;6369034;22;20021;-84
2023/12/06 10:58:35;;;;;;;15.07;10.43;;;;;;;5.88;100.00;101276.03;6369056;22;20002;-80
2023/12/06 11:01:02;;;;;;;18.50;10.48;;;;;;;5.84;100.00;101258.81;6369426;22;20016;-82
2023/12/06 11:03:27;;;;;;;16.25;9.85;;;;;;;5.86;100.00;101264.78;6341085;22;20014;-82
2023/12/06 11:05:56;;;;;;;14.95;10.15;;;;;;;5.77;100.00;101265.78;6369408;22;20006;-82